sensor_id;sensor_type;location;lat;lon;timestamp;P1;durP1;ratioP1;P2;durP2;ratioP2
35442;SDS011;21561;55.654;37.592;2024-01-15T00:00:58;19.83;;;6.95;;
35442;SDS011;21561;55.654;37.592;2024-01-15T00:03:25;20.42;;;7.53;;
35442;SDS011;21561;55.654;37.592;2024-01-15T00:05:52;21.55;;;7.22;;
35442;SDS011;21561;55.654;37.592;2024-01-15T00:08:19;18.77;;;6.30;;
35442;SDS011;21561;55.654;37.592;2024-01-15T00:10:45;19.98;;;6.50;;
35442;SDS011;21561;55.654;37.592;2024-01-15T00:13:12;22.23;;;7.05;;
35442;SDS011;21561;55.654;37.592;2024-01-15T00:15:39;21.38;;;7.72;;
35442;SDS011;21561;55.654;37.592;2024-01-15T00:18:06;20.50;;;7.32;;
35442;SDS011;21561;55.654;37.592;2024-01-15T00:20:34;19.33;;;6.95;;
35442;SDS011;21561;55.654;37.592;2024-01-15T00:23:01;23.15;;;7.82;;
35442;SDS011;21561;55.654;37.592;2024-01-15T00:25:28;22.17;;;7.93;;
35442;SDS011;21561;55.654;37.592;2024-01-15T00:27:55;19.77;;;7.05;;
35442;SDS011;21561;55.654;37.592;2024-01-15T00:30:22;23.52;;;8.13;;
35442;SDS011;21561;55.654;37.592;2024-01-15T00:32:49;23.50;;;7.53;;
35442;SDS011;21561;55.654;37.592;2024-01-15T00:35:16;23.75;;;7.45;;
35442;SDS011;21561;55.654;37.592;2024-01-15T00:37:43;23.08;;;8.95;;
35442;SDS011;21561;55.654;37.592;2024-01-15T00:40:09;21.23;;;7.65;;
35442;SDS011;21561;55.654;37.592;2024-01-15T00:42:37;22.00;;;7.68;;
35442;SDS011;21561;55.654;37.592;2024-01-15T00:45:04;22.45;;;8.25;;
35442;SDS011;21561;55.654;37.592;2024-01-15T00:47:33;26.23;;;8.90;;
35442;SDS011;21561;55.654;37.592;2024-01-15T00:50:01;29.73;;;9.63;;
35442;SDS011;21561;55.654;37.592;2024-01-15T00:52:29;25.42;;;8.48;;
35442;SDS011;21561;55.654;37.592;2024-01-15T00:54:56;20.52;;;7.50;;
35442;SDS011;21561;55.654;37.592;2024-01-15T00:57:23;22.13;;;7.45;;
35442;SDS011;21561;55.654;37.592;2024-01-15T00:59:50;23.88;;;8.95;;
35442;SDS011;21561;55.654;37.592;2024-01-15T01:02:17;21.77;;;7.75;;
35442;SDS011;21561;55.654;37.592;2024-01-15T01:04:44;23.70;;;8.93;;
35442;SDS011;21561;55.654;37.592;2024-01-15T01:07:11;24.92;;;8.65;;
35442;SDS011;21561;55.654;37.592;2024-01-15T01:09:38;22.35;;;8.07;;
35442;SDS011;21561;55.654;37.592;2024-01-15T01:12:05;26.35;;;8.63;;
35442;SDS011;21561;55.654;37.592;2024-01-15T01:14:32;24.10;;;8.32;;
35442;SDS011;21561;55.654;37.592;2024-01-15T01:16:59;22.52;;;8.25;;
35442;SDS011;21561;55.654;37.592;2024-01-15T01:19:26;23.40;;;8.52;;
35442;SDS011;21561;55.654;37.592;2024-01-15T01:21:53;23.15;;;8.35;;
35442;SDS011;21561;55.654;37.592;2024-01-15T01:24:20;24.90;;;8.35;;
35442;SDS011;21561;55.654;37.592;2024-01-15T01:26:47;20.42;;;8.00;;
35442;SDS011;21561;55.654;37.592;2024-01-15T01:29:15;20.60;;;7.55;;
35442;SDS011;21561;55.654;37.592;2024-01-15T01:31:43;22.60;;;8.68;;
35442;SDS011;21561;55.654;37.592;2024-01-15T01:34:14;25.25;;;9.02;;
35442;SDS011;21561;55.654;37.592;2024-01-15T01:36:42;25.25;;;8.73;;
35442;SDS011;21561;55.654;37.592;2024-01-15T01:39:10;23.95;;;8.50;;
35442;SDS011;21561;55.654;37.592;2024-01-15T01:41:37;22.92;;;8.07;;
35442;SDS011;21561;55.654;37.592;2024-01-15T01:44:05;24.52;;;8.50;;
35442;SDS011;21561;55.654;37.592;2024-01-15T01:46:33;21.83;;;7.85;;
35442;SDS011;21561;55.654;37.592;2024-01-15T01:49:06;23.98;;;8.25;;
35442;SDS011;21561;55.654;37.592;2024-01-15T01:51:35;27.05;;;9.40;;
35442;SDS011;21561;55.654;37.592;2024-01-15T01:54:04;25.05;;;9.90;;
35442;SDS011;21561;55.654;37.592;2024-01-15T01:56:33;25.25;;;9.13;;
35442;SDS011;21561;55.654;37.592;2024-01-15T01:59:01;23.08;;;8.82;;
35442;SDS011;21561;55.654;37.592;2024-01-15T02:01:29;24.02;;;9.15;;
35442;SDS011;21561;55.654;37.592;2024-01-15T02:03:58;32.20;;;9.10;;
35442;SDS011;21561;55.654;37.592;2024-01-15T02:06:25;25.60;;;9.40;;
35442;SDS011;21561;55.654;37.592;2024-01-15T02:08:52;21.67;;;8.80;;
35442;SDS011;21561;55.654;37.592;2024-01-15T02:11:19;23.60;;;8.40;;
35442;SDS011;21561;55.654;37.592;2024-01-15T02:13:47;24.48;;;8.80;;
35442;SDS011;21561;55.654;37.592;2024-01-15T02:16:14;27.05;;;9.27;;
35442;SDS011;21561;55.654;37.592;2024-01-15T02:18:42;21.65;;;8.48;;
35442;SDS011;21561;55.654;37.592;2024-01-15T02:21:31;20.85;;;7.38;;
35442;SDS011;21561;55.654;37.592;2024-01-15T02:23:58;19.13;;;7.50;;
35442;SDS011;21561;55.654;37.592;2024-01-15T02:26:25;24.02;;;8.82;;
35442;SDS011;21561;55.654;37.592;2024-01-15T02:28:52;27.38;;;10.02;;
35442;SDS011;21561;55.654;37.592;2024-01-15T02:31:20;23.00;;;8.85;;
35442;SDS011;21561;55.654;37.592;2024-01-15T02:33:46;26.13;;;10.15;;
35442;SDS011;21561;55.654;37.592;2024-01-15T02:36:14;23.98;;;9.52;;
35442;SDS011;21561;55.654;37.592;2024-01-15T02:38:42;23.98;;;9.90;;
35442;SDS011;21561;55.654;37.592;2024-01-15T02:41:09;26.25;;;9.40;;
35442;SDS011;21561;55.654;37.592;2024-01-15T02:43:36;27.35;;;10.13;;
35442;SDS011;21561;55.654;37.592;2024-01-15T02:46:03;29.30;;;10.48;;
35442;SDS011;21561;55.654;37.592;2024-01-15T02:48:30;26.27;;;10.13;;
35442;SDS011;21561;55.654;37.592;2024-01-15T02:50:57;28.00;;;11.70;;
35442;SDS011;21561;55.654;37.592;2024-01-15T02:53:24;24.60;;;9.80;;
35442;SDS011;21561;55.654;37.592;2024-01-15T02:55:51;24.17;;;8.73;;
35442;SDS011;21561;55.654;37.592;2024-01-15T02:58:18;24.23;;;9.38;;
35442;SDS011;21561;55.654;37.592;2024-01-15T03:00:45;26.33;;;9.80;;
35442;SDS011;21561;55.654;37.592;2024-01-15T03:03:13;24.23;;;9.45;;
35442;SDS011;21561;55.654;37.592;2024-01-15T03:05:40;27.77;;;10.13;;
35442;SDS011;21561;55.654;37.592;2024-01-15T03:08:07;22.80;;;7.85;;
35442;SDS011;21561;55.654;37.592;2024-01-15T03:10:34;25.23;;;9.50;;
35442;SDS011;21561;55.654;37.592;2024-01-15T03:13:00;24.33;;;9.05;;
35442;SDS011;21561;55.654;37.592;2024-01-15T03:15:28;26.48;;;10.73;;
35442;SDS011;21561;55.654;37.592;2024-01-15T03:17:55;28.88;;;10.02;;
35442;SDS011;21561;55.654;37.592;2024-01-15T03:20:22;25.35;;;9.85;;
35442;SDS011;21561;55.654;37.592;2024-01-15T03:22:49;25.33;;;10.15;;
35442;SDS011;21561;55.654;37.592;2024-01-15T03:25:16;26.13;;;9.70;;
35442;SDS011;21561;55.654;37.592;2024-01-15T03:27:43;24.38;;;10.00;;
35442;SDS011;21561;55.654;37.592;2024-01-15T03:30:11;26.98;;;10.48;;
35442;SDS011;21561;55.654;37.592;2024-01-15T03:32:38;26.02;;;9.85;;
35442;SDS011;21561;55.654;37.592;2024-01-15T03:35:05;24.58;;;9.55;;
35442;SDS011;21561;55.654;37.592;2024-01-15T03:37:32;28.63;;;10.73;;
35442;SDS011;21561;55.654;37.592;2024-01-15T03:39:59;25.63;;;10.35;;
35442;SDS011;21561;55.654;37.592;2024-01-15T03:42:29;26.67;;;10.45;;
35442;SDS011;21561;55.654;37.592;2024-01-15T03:44:56;26.15;;;10.00;;
35442;SDS011;21561;55.654;37.592;2024-01-15T03:47:23;25.80;;;10.02;;
35442;SDS011;21561;55.654;37.592;2024-01-15T03:49:50;25.92;;;10.15;;
35442;SDS011;21561;55.654;37.592;2024-01-15T03:52:17;27.08;;;10.38;;
35442;SDS011;21561;55.654;37.592;2024-01-15T03:54:44;26.80;;;10.20;;
35442;SDS011;21561;55.654;37.592;2024-01-15T03:57:11;25.35;;;9.25;;
35442;SDS011;21561;55.654;37.592;2024-01-15T03:59:40;29.08;;;10.43;;
35442;SDS011;21561;55.654;37.592;2024-01-15T04:02:08;24.30;;;10.38;;
35442;SDS011;21561;55.654;37.592;2024-01-15T04:04:35;26.45;;;10.18;;
35442;SDS011;21561;55.654;37.592;2024-01-15T04:07:02;23.80;;;9.35;;
35442;SDS011;21561;55.654;37.592;2024-01-15T04:09:29;25.52;;;10.13;;
35442;SDS011;21561;55.654;37.592;2024-01-15T04:11:56;26.75;;;10.20;;
35442;SDS011;21561;55.654;37.592;2024-01-15T04:14:23;25.55;;;10.55;;
35442;SDS011;21561;55.654;37.592;2024-01-15T04:16:50;28.08;;;11.15;;
35442;SDS011;21561;55.654;37.592;2024-01-15T04:19:18;27.67;;;11.00;;
35442;SDS011;21561;55.654;37.592;2024-01-15T04:21:45;24.63;;;9.35;;
35442;SDS011;21561;55.654;37.592;2024-01-15T04:24:12;25.98;;;10.40;;
35442;SDS011;21561;55.654;37.592;2024-01-15T04:26:39;26.35;;;11.10;;
35442;SDS011;21561;55.654;37.592;2024-01-15T04:29:05;27.55;;;10.85;;
35442;SDS011;21561;55.654;37.592;2024-01-15T04:31:32;25.50;;;10.63;;
35442;SDS011;21561;55.654;37.592;2024-01-15T04:33:59;25.33;;;9.68;;
35442;SDS011;21561;55.654;37.592;2024-01-15T04:36:26;26.35;;;10.68;;
35442;SDS011;21561;55.654;37.592;2024-01-15T04:38:53;29.63;;;11.68;;
35442;SDS011;21561;55.654;37.592;2024-01-15T04:41:20;27.27;;;11.38;;
35442;SDS011;21561;55.654;37.592;2024-01-15T04:43:47;28.40;;;10.88;;
35442;SDS011;21561;55.654;37.592;2024-01-15T04:46:14;28.75;;;10.48;;
35442;SDS011;21561;55.654;37.592;2024-01-15T04:48:41;26.75;;;10.93;;
35442;SDS011;21561;55.654;37.592;2024-01-15T04:51:08;29.02;;;10.80;;
35442;SDS011;21561;55.654;37.592;2024-01-15T04:53:36;32.55;;;10.73;;
35442;SDS011;21561;55.654;37.592;2024-01-15T04:56:03;27.92;;;11.05;;
35442;SDS011;21561;55.654;37.592;2024-01-15T04:58:30;29.50;;;11.95;;
35442;SDS011;21561;55.654;37.592;2024-01-15T05:00:57;30.30;;;11.85;;
35442;SDS011;21561;55.654;37.592;2024-01-15T05:03:24;28.70;;;11.98;;
35442;SDS011;21561;55.654;37.592;2024-01-15T05:05:51;29.08;;;12.15;;
35442;SDS011;21561;55.654;37.592;2024-01-15T05:08:18;29.50;;;12.10;;
35442;SDS011;21561;55.654;37.592;2024-01-15T05:10:45;30.33;;;11.95;;
35442;SDS011;21561;55.654;37.592;2024-01-15T05:13:12;25.60;;;10.73;;
35442;SDS011;21561;55.654;37.592;2024-01-15T05:15:39;28.00;;;11.73;;
35442;SDS011;21561;55.654;37.592;2024-01-15T05:18:06;32.47;;;11.93;;
35442;SDS011;21561;55.654;37.592;2024-01-15T05:20:34;29.35;;;11.55;;
35442;SDS011;21561;55.654;37.592;2024-01-15T05:23:01;28.73;;;10.93;;
35442;SDS011;21561;55.654;37.592;2024-01-15T05:25:28;29.77;;;12.18;;
35442;SDS011;21561;55.654;37.592;2024-01-15T05:27:55;28.27;;;11.55;;
35442;SDS011;21561;55.654;37.592;2024-01-15T05:30:22;27.25;;;11.73;;
35442;SDS011;21561;55.654;37.592;2024-01-15T05:32:49;26.60;;;11.27;;
35442;SDS011;21561;55.654;37.592;2024-01-15T05:35:16;26.70;;;11.57;;
35442;SDS011;21561;55.654;37.592;2024-01-15T05:37:44;28.92;;;11.32;;
35442;SDS011;21561;55.654;37.592;2024-01-15T05:40:12;29.20;;;10.80;;
35442;SDS011;21561;55.654;37.592;2024-01-15T05:42:42;30.55;;;12.50;;
35442;SDS011;21561;55.654;37.592;2024-01-15T05:45:09;31.10;;;12.93;;
35442;SDS011;21561;55.654;37.592;2024-01-15T05:47:36;27.85;;;11.35;;
35442;SDS011;21561;55.654;37.592;2024-01-15T05:50:03;29.48;;;11.70;;
35442;SDS011;21561;55.654;37.592;2024-01-15T05:52:31;28.33;;;12.07;;
35442;SDS011;21561;55.654;37.592;2024-01-15T05:54:58;32.72;;;12.48;;
35442;SDS011;21561;55.654;37.592;2024-01-15T05:57:25;29.45;;;11.07;;
35442;SDS011;21561;55.654;37.592;2024-01-15T05:59:52;29.10;;;11.15;;
35442;SDS011;21561;55.654;37.592;2024-01-15T06:02:19;29.15;;;13.27;;
35442;SDS011;21561;55.654;37.592;2024-01-15T06:04:46;32.22;;;13.07;;
35442;SDS011;21561;55.654;37.592;2024-01-15T06:07:13;30.15;;;12.20;;
35442;SDS011;21561;55.654;37.592;2024-01-15T06:09:40;29.25;;;11.85;;
35442;SDS011;21561;55.654;37.592;2024-01-15T06:12:07;30.23;;;11.02;;
35442;SDS011;21561;55.654;37.592;2024-01-15T06:14:35;28.48;;;12.02;;
35442;SDS011;21561;55.654;37.592;2024-01-15T06:17:02;29.40;;;11.32;;
35442;SDS011;21561;55.654;37.592;2024-01-15T06:19:29;30.63;;;11.57;;
35442;SDS011;21561;55.654;37.592;2024-01-15T06:21:56;27.83;;;11.57;;
35442;SDS011;21561;55.654;37.592;2024-01-15T06:24:23;29.65;;;12.25;;
35442;SDS011;21561;55.654;37.592;2024-01-15T06:26:50;29.52;;;11.75;;
35442;SDS011;21561;55.654;37.592;2024-01-15T06:29:17;29.73;;;12.70;;
35442;SDS011;21561;55.654;37.592;2024-01-15T06:31:44;29.55;;;12.45;;
35442;SDS011;21561;55.654;37.592;2024-01-15T06:34:11;27.55;;;12.05;;
35442;SDS011;21561;55.654;37.592;2024-01-15T06:36:39;31.83;;;13.20;;
35442;SDS011;21561;55.654;37.592;2024-01-15T06:39:06;29.95;;;13.07;;
35442;SDS011;21561;55.654;37.592;2024-01-15T06:41:33;30.08;;;13.13;;
35442;SDS011;21561;55.654;37.592;2024-01-15T06:43:59;29.98;;;12.30;;
35442;SDS011;21561;55.654;37.592;2024-01-15T06:46:26;29.83;;;11.93;;
35442;SDS011;21561;55.654;37.592;2024-01-15T06:48:53;29.67;;;12.30;;
35442;SDS011;21561;55.654;37.592;2024-01-15T06:51:21;29.42;;;13.27;;
35442;SDS011;21561;55.654;37.592;2024-01-15T06:53:48;28.33;;;12.70;;
35442;SDS011;21561;55.654;37.592;2024-01-15T06:56:15;31.60;;;12.82;;
35442;SDS011;21561;55.654;37.592;2024-01-15T06:58:42;30.25;;;11.82;;
35442;SDS011;21561;55.654;37.592;2024-01-15T07:01:09;27.02;;;12.52;;
35442;SDS011;21561;55.654;37.592;2024-01-15T07:03:36;30.30;;;12.90;;
35442;SDS011;21561;55.654;37.592;2024-01-15T07:06:04;27.50;;;12.02;;
35442;SDS011;21561;55.654;37.592;2024-01-15T07:08:31;28.25;;;12.25;;
35442;SDS011;21561;55.654;37.592;2024-01-15T07:10:58;27.50;;;12.45;;
35442;SDS011;21561;55.654;37.592;2024-01-15T07:13:25;28.80;;;11.45;;
35442;SDS011;21561;55.654;37.592;2024-01-15T07:15:52;30.58;;;13.10;;
35442;SDS011;21561;55.654;37.592;2024-01-15T07:18:19;31.20;;;13.40;;
35442;SDS011;21561;55.654;37.592;2024-01-15T07:20:46;30.25;;;12.38;;
35442;SDS011;21561;55.654;37.592;2024-01-15T07:23:13;30.17;;;12.48;;
35442;SDS011;21561;55.654;37.592;2024-01-15T07:25:40;32.03;;;12.82;;
35442;SDS011;21561;55.654;37.592;2024-01-15T07:28:07;29.08;;;12.32;;
35442;SDS011;21561;55.654;37.592;2024-01-15T07:30:34;31.65;;;12.80;;
35442;SDS011;21561;55.654;37.592;2024-01-15T07:33:01;29.42;;;11.75;;
35442;SDS011;21561;55.654;37.592;2024-01-15T07:35:31;31.95;;;14.10;;
35442;SDS011;21561;55.654;37.592;2024-01-15T07:37:58;29.73;;;12.85;;
35442;SDS011;21561;55.654;37.592;2024-01-15T07:40:25;34.92;;;13.18;;
35442;SDS011;21561;55.654;37.592;2024-01-15T07:42:52;32.65;;;12.60;;
35442;SDS011;21561;55.654;37.592;2024-01-15T07:45:19;31.13;;;12.73;;
35442;SDS011;21561;55.654;37.592;2024-01-15T07:47:47;29.77;;;12.15;;
35442;SDS011;21561;55.654;37.592;2024-01-15T07:50:14;29.48;;;12.73;;
35442;SDS011;21561;55.654;37.592;2024-01-15T07:52:41;33.03;;;13.80;;
35442;SDS011;21561;55.654;37.592;2024-01-15T07:55:11;31.38;;;13.05;;
35442;SDS011;21561;55.654;37.592;2024-01-15T07:57:38;29.75;;;13.15;;
35442;SDS011;21561;55.654;37.592;2024-01-15T08:00:05;29.73;;;13.10;;
35442;SDS011;21561;55.654;37.592;2024-01-15T08:02:32;28.55;;;12.95;;
35442;SDS011;21561;55.654;37.592;2024-01-15T08:05:03;33.42;;;13.68;;
35442;SDS011;21561;55.654;37.592;2024-01-15T08:07:30;27.35;;;11.90;;
35442;SDS011;21561;55.654;37.592;2024-01-15T08:09:57;31.05;;;12.85;;
35442;SDS011;21561;55.654;37.592;2024-01-15T08:12:25;28.23;;;12.38;;
35442;SDS011;21561;55.654;37.592;2024-01-15T08:14:52;34.80;;;14.07;;
35442;SDS011;21561;55.654;37.592;2024-01-15T08:17:19;29.75;;;13.43;;
35442;SDS011;21561;55.654;37.592;2024-01-15T08:19:46;29.27;;;13.98;;
35442;SDS011;21561;55.654;37.592;2024-01-15T08:22:13;28.25;;;12.38;;
35442;SDS011;21561;55.654;37.592;2024-01-15T08:24:40;27.65;;;12.88;;
35442;SDS011;21561;55.654;37.592;2024-01-15T08:27:07;31.25;;;12.90;;
35442;SDS011;21561;55.654;37.592;2024-01-15T08:29:34;27.92;;;12.18;;
35442;SDS011;21561;55.654;37.592;2024-01-15T08:32:01;33.30;;;13.13;;
35442;SDS011;21561;55.654;37.592;2024-01-15T08:34:28;29.60;;;13.68;;
35442;SDS011;21561;55.654;37.592;2024-01-15T08:36:58;29.65;;;13.35;;
35442;SDS011;21561;55.654;37.592;2024-01-15T08:39:25;30.35;;;12.20;;
35442;SDS011;21561;55.654;37.592;2024-01-15T08:41:52;28.92;;;12.23;;
35442;SDS011;21561;55.654;37.592;2024-01-15T08:44:19;31.77;;;14.23;;
35442;SDS011;21561;55.654;37.592;2024-01-15T08:46:45;30.25;;;12.07;;
35442;SDS011;21561;55.654;37.592;2024-01-15T08:49:12;31.33;;;13.75;;
35442;SDS011;21561;55.654;37.592;2024-01-15T08:51:39;33.67;;;14.48;;
35442;SDS011;21561;55.654;37.592;2024-01-15T08:54:06;28.85;;;13.35;;
35442;SDS011;21561;55.654;37.592;2024-01-15T08:56:35;31.92;;;13.57;;
35442;SDS011;21561;55.654;37.592;2024-01-15T08:59:02;31.85;;;13.45;;
35442;SDS011;21561;55.654;37.592;2024-01-15T09:01:28;28.83;;;12.95;;
35442;SDS011;21561;55.654;37.592;2024-01-15T09:03:56;32.05;;;13.82;;
35442;SDS011;21561;55.654;37.592;2024-01-15T09:06:23;29.17;;;12.77;;
35442;SDS011;21561;55.654;37.592;2024-01-15T09:08:50;32.08;;;12.43;;
35442;SDS011;21561;55.654;37.592;2024-01-15T09:11:17;31.83;;;13.75;;
35442;SDS011;21561;55.654;37.592;2024-01-15T09:13:44;30.10;;;12.90;;
35442;SDS011;21561;55.654;37.592;2024-01-15T09:16:11;29.52;;;13.15;;
35442;SDS011;21561;55.654;37.592;2024-01-15T09:18:38;33.10;;;13.38;;
35442;SDS011;21561;55.654;37.592;2024-01-15T09:21:05;28.52;;;12.27;;
35442;SDS011;21561;55.654;37.592;2024-01-15T09:23:32;28.02;;;12.82;;
35442;SDS011;21561;55.654;37.592;2024-01-15T09:25:59;28.85;;;13.10;;
35442;SDS011;21561;55.654;37.592;2024-01-15T09:28:26;28.02;;;12.75;;
35442;SDS011;21561;55.654;37.592;2024-01-15T09:30:53;29.67;;;12.63;;
35442;SDS011;21561;55.654;37.592;2024-01-15T09:33:20;26.48;;;11.60;;
35442;SDS011;21561;55.654;37.592;2024-01-15T09:35:47;23.50;;;10.65;;
35442;SDS011;21561;55.654;37.592;2024-01-15T09:38:14;29.02;;;10.43;;
35442;SDS011;21561;55.654;37.592;2024-01-15T09:40:42;25.20;;;10.80;;
35442;SDS011;21561;55.654;37.592;2024-01-15T09:43:12;29.25;;;11.52;;
35442;SDS011;21561;55.654;37.592;2024-01-15T09:45:41;27.15;;;10.95;;
35442;SDS011;21561;55.654;37.592;2024-01-15T09:48:09;26.63;;;10.25;;
35442;SDS011;21561;55.654;37.592;2024-01-15T09:50:36;24.90;;;10.00;;
35442;SDS011;21561;55.654;37.592;2024-01-15T09:53:04;26.20;;;10.15;;
35442;SDS011;21561;55.654;37.592;2024-01-15T09:55:32;24.90;;;9.13;;
35442;SDS011;21561;55.654;37.592;2024-01-15T09:58:00;26.45;;;10.68;;
35442;SDS011;21561;55.654;37.592;2024-01-15T10:00:28;26.00;;;10.40;;
35442;SDS011;21561;55.654;37.592;2024-01-15T10:02:57;23.40;;;10.68;;
35442;SDS011;21561;55.654;37.592;2024-01-15T10:05:26;24.52;;;9.80;;
35442;SDS011;21561;55.654;37.592;2024-01-15T10:07:54;24.20;;;10.32;;
35442;SDS011;21561;55.654;37.592;2024-01-15T10:10:23;25.33;;;10.88;;
35442;SDS011;21561;55.654;37.592;2024-01-15T10:12:50;23.55;;;9.80;;
35442;SDS011;21561;55.654;37.592;2024-01-15T10:15:17;24.55;;;9.77;;
35442;SDS011;21561;55.654;37.592;2024-01-15T10:17:44;23.95;;;9.73;;
35442;SDS011;21561;55.654;37.592;2024-01-15T10:20:12;25.50;;;10.73;;
35442;SDS011;21561;55.654;37.592;2024-01-15T10:22:40;25.38;;;11.40;;
35442;SDS011;21561;55.654;37.592;2024-01-15T10:25:14;26.52;;;11.20;;
35442;SDS011;21561;55.654;37.592;2024-01-15T10:27:43;23.30;;;9.27;;
35442;SDS011;21561;55.654;37.592;2024-01-15T10:30:10;27.67;;;10.07;;
35442;SDS011;21561;55.654;37.592;2024-01-15T10:32:38;26.08;;;10.88;;
35442;SDS011;21561;55.654;37.592;2024-01-15T10:35:06;26.35;;;10.40;;
35442;SDS011;21561;55.654;37.592;2024-01-15T10:37:35;27.30;;;11.77;;
35442;SDS011;21561;55.654;37.592;2024-01-15T10:40:02;25.33;;;11.40;;
35442;SDS011;21561;55.654;37.592;2024-01-15T10:42:32;26.25;;;10.85;;
35442;SDS011;21561;55.654;37.592;2024-01-15T10:45:00;26.80;;;11.48;;
35442;SDS011;21561;55.654;37.592;2024-01-15T10:47:29;25.52;;;10.35;;
35442;SDS011;21561;55.654;37.592;2024-01-15T10:49:57;25.98;;;11.30;;
35442;SDS011;21561;55.654;37.592;2024-01-15T10:52:24;26.02;;;10.98;;
35442;SDS011;21561;55.654;37.592;2024-01-15T10:54:52;26.60;;;10.60;;
35442;SDS011;21561;55.654;37.592;2024-01-15T10:57:20;26.40;;;11.50;;
35442;SDS011;21561;55.654;37.592;2024-01-15T10:59:49;27.02;;;11.70;;
35442;SDS011;21561;55.654;37.592;2024-01-15T11:02:16;27.75;;;11.02;;
35442;SDS011;21561;55.654;37.592;2024-01-15T11:04:43;26.10;;;11.18;;
35442;SDS011;21561;55.654;37.592;2024-01-15T11:07:11;25.08;;;10.65;;
35442;SDS011;21561;55.654;37.592;2024-01-15T11:09:38;26.48;;;11.20;;
35442;SDS011;21561;55.654;37.592;2024-01-15T11:12:06;25.80;;;10.93;;
35442;SDS011;21561;55.654;37.592;2024-01-15T11:17:30;27.52;;;11.30;;
35442;SDS011;21561;55.654;37.592;2024-01-15T11:20:26;27.48;;;12.05;;
35442;SDS011;21561;55.654;37.592;2024-01-15T11:22:54;28.08;;;11.48;;
35442;SDS011;21561;55.654;37.592;2024-01-15T11:25:23;25.98;;;11.05;;
35442;SDS011;21561;55.654;37.592;2024-01-15T11:27:51;27.52;;;10.93;;
35442;SDS011;21561;55.654;37.592;2024-01-15T11:30:21;26.58;;;10.95;;
35442;SDS011;21561;55.654;37.592;2024-01-15T11:32:52;25.38;;;10.75;;
35442;SDS011;21561;55.654;37.592;2024-01-15T11:35:20;26.25;;;9.77;;
35442;SDS011;21561;55.654;37.592;2024-01-15T11:42:59;27.30;;;11.35;;
35442;SDS011;21561;55.654;37.592;2024-01-15T11:45:27;24.83;;;11.38;;
35442;SDS011;21561;55.654;37.592;2024-01-15T11:48:03;25.30;;;10.77;;
35442;SDS011;21561;55.654;37.592;2024-01-15T11:50:50;25.45;;;10.80;;
35442;SDS011;21561;55.654;37.592;2024-01-15T11:55:51;30.02;;;12.23;;
35442;SDS011;21561;55.654;37.592;2024-01-15T11:58:18;26.15;;;12.02;;
35442;SDS011;21561;55.654;37.592;2024-01-15T12:00:47;27.23;;;11.15;;
35442;SDS011;21561;55.654;37.592;2024-01-15T12:03:22;26.77;;;10.27;;
35442;SDS011;21561;55.654;37.592;2024-01-15T12:05:50;24.25;;;11.02;;
35442;SDS011;21561;55.654;37.592;2024-01-15T12:08:22;25.60;;;12.05;;
35442;SDS011;21561;55.654;37.592;2024-01-15T12:10:50;25.05;;;10.48;;
35442;SDS011;21561;55.654;37.592;2024-01-15T12:13:18;28.20;;;11.18;;
35442;SDS011;21561;55.654;37.592;2024-01-15T12:15:46;28.30;;;11.63;;
35442;SDS011;21561;55.654;37.592;2024-01-15T12:18:16;29.15;;;11.70;;
35442;SDS011;21561;55.654;37.592;2024-01-15T12:20:45;26.27;;;11.07;;
35442;SDS011;21561;55.654;37.592;2024-01-15T12:23:15;27.00;;;11.87;;
35442;SDS011;21561;55.654;37.592;2024-01-15T12:25:44;29.17;;;11.13;;
35442;SDS011;21561;55.654;37.592;2024-01-15T12:43:33;28.73;;;13.25;;
35442;SDS011;21561;55.654;37.592;2024-01-15T12:46:03;28.60;;;12.32;;
35442;SDS011;21561;55.654;37.592;2024-01-15T12:48:30;26.58;;;12.55;;
35442;SDS011;21561;55.654;37.592;2024-01-15T12:50:57;28.55;;;12.95;;
35442;SDS011;21561;55.654;37.592;2024-01-15T12:53:24;28.00;;;13.07;;
35442;SDS011;21561;55.654;37.592;2024-01-15T12:55:51;29.25;;;13.10;;
35442;SDS011;21561;55.654;37.592;2024-01-15T12:58:18;27.05;;;11.82;;
35442;SDS011;21561;55.654;37.592;2024-01-15T13:00:46;28.40;;;12.48;;
35442;SDS011;21561;55.654;37.592;2024-01-15T13:03:14;29.45;;;14.05;;
35442;SDS011;21561;55.654;37.592;2024-01-15T13:05:41;26.40;;;12.70;;
35442;SDS011;21561;55.654;37.592;2024-01-15T13:08:09;28.52;;;13.32;;
35442;SDS011;21561;55.654;37.592;2024-01-15T13:10:36;29.73;;;13.20;;
35442;SDS011;21561;55.654;37.592;2024-01-15T13:13:03;32.15;;;13.77;;
35442;SDS011;21561;55.654;37.592;2024-01-15T13:15:30;29.67;;;13.35;;
35442;SDS011;21561;55.654;37.592;2024-01-15T13:17:58;30.23;;;13.50;;
35442;SDS011;21561;55.654;37.592;2024-01-15T13:20:24;31.10;;;13.00;;
35442;SDS011;21561;55.654;37.592;2024-01-15T13:22:52;31.05;;;14.60;;
35442;SDS011;21561;55.654;37.592;2024-01-15T13:25:19;33.30;;;13.85;;
35442;SDS011;21561;55.654;37.592;2024-01-15T13:27:47;27.92;;;11.85;;
35442;SDS011;21561;55.654;37.592;2024-01-15T13:30:14;28.50;;;12.68;;
35442;SDS011;21561;55.654;37.592;2024-01-15T13:32:41;30.90;;;14.02;;
35442;SDS011;21561;55.654;37.592;2024-01-15T13:35:08;32.10;;;13.40;;
35442;SDS011;21561;55.654;37.592;2024-01-15T13:37:36;32.20;;;13.45;;
35442;SDS011;21561;55.654;37.592;2024-01-15T13:40:04;30.60;;;14.25;;
35442;SDS011;21561;55.654;37.592;2024-01-15T13:42:34;32.00;;;13.73;;
35442;SDS011;21561;55.654;37.592;2024-01-15T13:45:01;30.60;;;14.02;;
35442;SDS011;21561;55.654;37.592;2024-01-15T13:47:30;30.38;;;13.48;;
35442;SDS011;21561;55.654;37.592;2024-01-15T13:49:57;31.50;;;13.60;;
35442;SDS011;21561;55.654;37.592;2024-01-15T13:52:24;31.15;;;13.57;;
35442;SDS011;21561;55.654;37.592;2024-01-15T13:54:51;32.80;;;13.63;;
35442;SDS011;21561;55.654;37.592;2024-01-15T13:57:18;32.65;;;13.10;;
35442;SDS011;21561;55.654;37.592;2024-01-15T13:59:47;28.95;;;13.63;;
35442;SDS011;21561;55.654;37.592;2024-01-15T14:02:15;27.70;;;11.95;;
35442;SDS011;21561;55.654;37.592;2024-01-15T14:04:47;32.60;;;13.65;;
35442;SDS011;21561;55.654;37.592;2024-01-15T14:07:15;30.83;;;13.18;;
35442;SDS011;21561;55.654;37.592;2024-01-15T14:09:42;32.33;;;13.98;;
35442;SDS011;21561;55.654;37.592;2024-01-15T14:12:10;34.60;;;14.07;;
35442;SDS011;21561;55.654;37.592;2024-01-15T14:14:38;27.38;;;13.02;;
35442;SDS011;21561;55.654;37.592;2024-01-15T14:17:07;31.17;;;13.25;;
35442;SDS011;21561;55.654;37.592;2024-01-15T14:19:34;33.30;;;15.52;;
35442;SDS011;21561;55.654;37.592;2024-01-15T14:22:01;33.78;;;14.23;;
35442;SDS011;21561;55.654;37.592;2024-01-15T14:24:28;30.70;;;14.32;;
35442;SDS011;21561;55.654;37.592;2024-01-15T14:26:55;36.55;;;16.15;;
35442;SDS011;21561;55.654;37.592;2024-01-15T14:29:23;34.13;;;15.63;;
35442;SDS011;21561;55.654;37.592;2024-01-15T14:31:52;35.20;;;15.23;;
35442;SDS011;21561;55.654;37.592;2024-01-15T14:34:20;32.63;;;14.55;;
35442;SDS011;21561;55.654;37.592;2024-01-15T14:36:50;34.05;;;15.25;;
35442;SDS011;21561;55.654;37.592;2024-01-15T14:39:21;35.88;;;15.50;;